Terminal Aerodrome Forecast
Issued by NWS

Home | Current Version | Previous Version | Graphics & Text | Print | Product List | Glossary On
Versions: 1 2 3 4 5 6 7 8 9 10 11 12 13 14 15
000
FTUS43 KICT 280500
TAFRSL
TAF
KRSL 280520Z 2806/2906 07005KT P6SM SCT200
     FM280700 VRB04KT P6SM SKC
     FM281400 10006KT P6SM SCT100=

USA.gov is the U.S. government's official web portal to all federal, state and local government web resources and services.